createdAt,value
2018-09-25T00:01:11.541Z,0.60
2018-09-25T00:03:46.211Z,0.60
2018-09-25T00:06:20.882Z,0.50
2018-09-25T00:08:56.190Z,0.53
2018-09-25T00:11:30.698Z,0.50
2018-09-25T00:14:05.401Z,0.60
2018-09-25T00:16:40.093Z,0.60
2018-09-25T00:19:14.703Z,0.60
2018-09-25T00:21:49.329Z,0.70
2018-09-25T00:24:24.085Z,0.30
2018-09-25T00:26:58.872Z,0.47
2018-09-25T00:29:33.538Z,0.60
2018-09-25T00:32:08.279Z,0.70
2018-09-25T00:34:43.115Z,0.40
2018-09-25T00:37:18.020Z,0.70
2018-09-25T00:39:52.803Z,0.50
2018-09-25T00:42:27.681Z,0.47
2018-09-25T00:45:02.332Z,0.40
2018-09-25T00:47:36.985Z,0.80
2018-09-25T00:50:12.093Z,0.40
2018-09-25T00:52:46.623Z,0.60
2018-09-25T00:55:21.252Z,0.60
2018-09-25T00:57:55.962Z,0.33
2018-09-25T01:00:30.812Z,0.50
2018-09-25T01:03:05.736Z,0.50
2018-09-25T01:05:40.535Z,0.60
2018-09-25T01:08:15.065Z,0.47
2018-09-25T01:10:49.455Z,0.50
2018-09-25T01:13:24.141Z,0.80
2018-09-25T01:15:58.838Z,0.60
2018-09-25T01:18:33.538Z,0.73
2018-09-25T01:21:08.015Z,0.77
2018-09-25T01:23:42.849Z,0.40
2018-09-25T01:26:18.028Z,0.43
2018-09-25T01:28:52.798Z,0.60
2018-09-25T01:31:27.672Z,0.53
2018-09-25T01:34:02.439Z,0.77
2018-09-25T01:36:37.178Z,0.57
2018-09-25T01:39:13.347Z,0.90
2018-09-25T01:41:48.435Z,0.77
2018-09-25T01:44:23.736Z,0.60
2018-09-25T01:46:58.222Z,0.63
2018-09-25T01:49:33.032Z,0.67
2018-09-25T01:52:07.884Z,0.80
2018-09-25T01:54:42.471Z,0.57
2018-09-25T01:57:16.974Z,0.70
2018-09-25T01:59:51.610Z,0.90
2018-09-25T02:02:26.884Z,0.53
2018-09-25T02:05:01.638Z,0.40
2018-09-25T02:07:36.378Z,0.60
2018-09-25T02:10:11.202Z,0.70
2018-09-25T02:12:46.040Z,0.70
2018-09-25T02:15:20.563Z,0.60
2018-09-25T02:17:55.601Z,0.57
2018-09-25T02:20:30.218Z,0.90
2018-09-25T02:23:04.762Z,0.83
2018-09-25T02:25:39.275Z,0.70
2018-09-25T02:28:14.109Z,0.60
2018-09-25T02:30:48.729Z,0.80
2018-09-25T02:33:23.415Z,1.00
2018-09-25T02:35:59.211Z,0.60
2018-09-25T02:38:34.016Z,0.67
2018-09-25T02:41:09.025Z,0.80
2018-09-25T02:43:43.628Z,0.60
2018-09-25T02:46:18.376Z,0.60
2018-09-25T02:48:52.913Z,0.70
2018-09-25T02:51:27.690Z,0.60
2018-09-25T02:54:02.939Z,0.40
2018-09-25T02:56:37.591Z,0.60
2018-09-25T02:59:12.167Z,0.70
2018-09-25T03:01:46.866Z,0.80
2018-09-25T03:04:21.578Z,0.50
2018-09-25T03:06:56.255Z,0.67
2018-09-25T03:09:31.332Z,0.70
2018-09-25T03:12:06.899Z,0.50
2018-09-25T03:14:41.564Z,0.60
2018-09-25T03:17:16.595Z,0.50
2018-09-25T03:19:51.285Z,0.50
2018-09-25T03:22:26.957Z,0.73
2018-09-25T03:25:01.531Z,0.30
2018-09-25T03:27:36.540Z,0.67
2018-09-25T03:30:12.662Z,0.60
2018-09-25T03:32:52.324Z,0.83
2018-09-25T03:35:27.164Z,0.70
2018-09-25T03:38:01.957Z,0.70
2018-09-25T03:40:37.046Z,0.63
2018-09-25T03:43:11.799Z,0.70
2018-09-25T03:45:46.569Z,0.70
2018-09-25T03:48:21.257Z,0.67
2018-09-25T03:50:55.970Z,0.70
2018-09-25T03:53:30.725Z,0.60
2018-09-25T03:56:05.709Z,0.60
2018-09-25T03:58:40.563Z,0.70
2018-09-25T04:01:16.043Z,0.87
2018-09-25T04:03:50.805Z,0.50
2018-09-25T04:06:29.683Z,0.77
2018-09-25T04:09:05.485Z,0.53
2018-09-25T04:11:45.895Z,0.53
2018-09-25T04:14:20.718Z,0.80
2018-09-25T04:16:56.574Z,0.60
2018-09-25T04:19:31.320Z,0.50
2018-09-25T04:22:06.187Z,0.90
2018-09-25T04:24:41.114Z,0.80
2018-09-25T04:27:15.831Z,0.70
2018-09-25T04:29:50.626Z,0.80
2018-09-25T04:32:26.942Z,0.80
2018-09-25T04:35:01.475Z,0.70
2018-09-25T04:37:36.459Z,1.27
2018-09-25T04:40:11.173Z,0.50
2018-09-25T04:42:46.024Z,0.90
2018-09-25T04:45:20.555Z,0.60
2018-09-25T04:47:55.644Z,0.70
2018-09-25T04:50:30.183Z,0.67
2018-09-25T04:53:04.692Z,0.60
2018-09-25T04:55:39.274Z,0.47
2018-09-25T04:58:14.005Z,0.50
2018-09-25T05:00:48.930Z,0.80
2018-09-25T05:03:24.220Z,0.60
2018-09-25T05:05:58.921Z,0.60
2018-09-25T05:08:33.776Z,0.43
2018-09-25T05:11:08.533Z,1.03
2018-09-25T05:13:43.502Z,0.50
2018-09-25T05:16:19.450Z,0.90
2018-09-25T05:18:54.166Z,0.63
2018-09-25T05:21:28.737Z,0.80
2018-09-25T05:24:03.981Z,1.00
2018-09-25T05:26:38.960Z,0.60
2018-09-25T05:29:13.787Z,0.70
2018-09-25T05:31:48.672Z,0.57
2018-09-25T05:34:23.426Z,0.70
2018-09-25T05:36:58.500Z,0.73
2018-09-25T05:39:33.234Z,0.83
2018-09-25T05:42:07.887Z,0.77
2018-09-25T05:44:42.594Z,0.77
2018-09-25T05:47:17.542Z,0.70
2018-09-25T05:49:52.400Z,0.67
2018-09-25T05:52:27.335Z,0.80
2018-09-25T05:55:02.260Z,1.00
2018-09-25T05:57:37.099Z,0.70
2018-09-25T06:00:12.109Z,0.70
2018-09-25T06:02:46.904Z,1.20
2018-09-25T06:05:21.685Z,0.50
2018-09-25T06:07:57.653Z,0.87
2018-09-25T06:10:32.273Z,0.60
2018-09-25T06:13:07.096Z,0.70
2018-09-25T06:15:41.908Z,0.63
2018-09-25T06:18:16.650Z,0.70
2018-09-25T06:20:51.140Z,0.80
2018-09-25T06:23:26.610Z,0.60
2018-09-25T06:26:01.600Z,0.70
2018-09-25T06:28:37.388Z,0.50
2018-09-25T06:31:12.234Z,0.47
2018-09-25T06:33:47.091Z,0.60
2018-09-25T06:36:22.010Z,0.60
2018-09-25T06:38:56.873Z,0.50
2018-09-25T06:41:39.697Z,0.73
2018-09-25T06:44:14.569Z,0.67
2018-09-25T06:46:49.206Z,0.53
2018-09-25T06:49:23.893Z,0.60
2018-09-25T06:51:58.762Z,0.57
2018-09-25T06:54:33.635Z,0.63
2018-09-25T06:57:08.347Z,0.47
2018-09-25T06:59:42.893Z,0.60
2018-09-25T07:02:18.340Z,0.67
2018-09-25T07:04:53.028Z,0.50
2018-09-25T07:07:28.030Z,0.60
2018-09-25T07:10:02.791Z,0.70
2018-09-25T07:12:37.389Z,0.60
2018-09-25T07:15:12.227Z,0.60
2018-09-25T07:17:46.788Z,0.60
2018-09-25T07:20:21.543Z,0.50
2018-09-25T07:22:57.842Z,0.40
2018-09-25T07:25:32.737Z,0.60
2018-09-25T07:28:07.482Z,0.60
2018-09-25T07:30:49.197Z,0.40
2018-09-25T07:33:23.958Z,0.60
2018-09-25T07:35:59.075Z,0.70
2018-09-25T07:38:33.649Z,0.60
2018-09-25T07:41:08.513Z,0.60
2018-09-25T07:43:45.919Z,0.50
2018-09-25T07:46:20.648Z,0.70
2018-09-25T07:48:56.200Z,0.30
2018-09-25T07:51:30.977Z,0.60
2018-09-25T07:54:06.228Z,0.63
2018-09-25T07:56:40.915Z,0.47
2018-09-25T07:59:15.878Z,0.63
2018-09-25T08:01:50.690Z,0.67
2018-09-25T08:04:27.033Z,0.60
2018-09-25T08:07:01.692Z,0.40
2018-09-25T08:09:36.387Z,0.60
2018-09-25T08:12:11.220Z,0.70
2018-09-25T08:14:45.935Z,1.00
2018-09-25T08:17:20.426Z,0.67
2018-09-25T08:19:56.180Z,0.40
2018-09-25T08:22:30.844Z,0.50
2018-09-25T08:25:05.514Z,0.37
2018-09-25T08:27:39.964Z,0.40
2018-09-25T08:30:14.703Z,0.40
2018-09-25T08:32:49.324Z,0.40
2018-09-25T08:35:24.054Z,0.33
2018-09-25T08:37:58.780Z,0.40
2018-09-25T08:40:33.355Z,0.80
2018-09-25T08:43:08.614Z,0.70
2018-09-25T08:45:43.321Z,0.50
2018-09-25T08:48:19.195Z,0.40
2018-09-25T08:50:53.677Z,0.50
2018-09-25T08:53:28.561Z,0.50
2018-09-25T08:56:03.298Z,0.30
2018-09-25T08:58:38.136Z,0.63
2018-09-25T09:01:13.439Z,0.50
2018-09-25T09:03:49.390Z,0.50
2018-09-25T09:06:23.970Z,0.53
2018-09-25T09:08:59.057Z,0.43
2018-09-25T09:11:33.800Z,0.50
2018-09-25T09:14:08.566Z,0.40
2018-09-25T09:16:43.221Z,0.60
2018-09-25T09:19:18.727Z,0.50
2018-09-25T09:21:53.623Z,0.50
2018-09-25T09:24:28.217Z,0.60
2018-09-25T09:27:02.867Z,0.47
2018-09-25T09:29:37.504Z,0.63
2018-09-25T09:32:12.236Z,0.77
2018-09-25T09:34:46.959Z,0.50
2018-09-25T09:37:21.859Z,0.60
2018-09-25T09:39:57.567Z,0.60
2018-09-25T09:42:32.376Z,0.50
2018-09-25T09:45:07.924Z,0.40
2018-09-25T09:47:42.446Z,0.60
2018-09-25T09:50:17.861Z,0.53
2018-09-25T09:52:52.437Z,0.57
2018-09-25T09:55:27.058Z,0.60
2018-09-25T09:58:01.655Z,0.77
2018-09-25T10:00:36.595Z,0.50
2018-09-25T10:03:11.319Z,0.60
2018-09-25T10:05:46.029Z,0.60
2018-09-25T10:08:20.657Z,0.60
2018-09-25T10:10:55.388Z,0.60
2018-09-25T10:13:30.272Z,0.50
2018-09-25T10:16:06.018Z,0.50
2018-09-25T10:18:40.738Z,0.60
2018-09-25T10:21:15.599Z,0.60
2018-09-25T10:23:50.377Z,0.50
2018-09-25T10:26:25.791Z,0.50
2018-09-25T10:29:00.570Z,0.80
2018-09-25T10:31:35.325Z,0.60
2018-09-25T10:34:10.334Z,0.50
2018-09-25T10:36:45.437Z,0.67
2018-09-25T10:39:20.265Z,0.40
2018-09-25T10:41:55.490Z,0.57
2018-09-25T10:44:30.257Z,0.63
2018-09-25T10:47:05.309Z,0.40
2018-09-25T10:49:40.183Z,0.40
2018-09-25T10:52:14.975Z,0.50
2018-09-25T10:54:49.558Z,0.60
2018-09-25T10:57:24.365Z,0.53
2018-09-25T11:00:00.052Z,0.37
2018-09-25T11:02:34.949Z,0.40
2018-09-25T11:05:09.660Z,0.50
2018-09-25T11:07:44.402Z,0.63
2018-09-25T11:10:19.386Z,0.40
2018-09-25T11:12:54.224Z,0.40
2018-09-25T11:15:29.045Z,0.40
2018-09-25T11:18:03.927Z,0.30
2018-09-25T11:20:38.587Z,0.70
2018-09-25T11:23:13.415Z,0.40
2018-09-25T11:25:48.512Z,0.50
2018-09-25T11:28:23.206Z,0.50
2018-09-25T11:30:57.972Z,0.40
2018-09-25T11:33:32.901Z,0.60
2018-09-25T11:36:08.667Z,0.40
2018-09-25T11:38:43.138Z,0.50
2018-09-25T11:41:18.174Z,0.40
2018-09-25T11:43:52.866Z,0.50
2018-09-25T11:46:27.673Z,0.13
2018-09-25T11:49:02.939Z,0.47
2018-09-25T11:51:37.629Z,0.20
2018-09-25T11:54:12.241Z,0.33
2018-09-25T11:56:46.943Z,0.50
2018-09-25T11:59:21.590Z,0.23
2018-09-25T12:01:57.346Z,0.30
2018-09-25T12:04:32.103Z,0.30
2018-09-25T12:07:06.848Z,0.37
2018-09-25T12:09:41.572Z,0.50
2018-09-25T12:12:16.418Z,0.60
2018-09-25T12:14:51.098Z,0.40
2018-09-25T12:17:26.308Z,0.47
2018-09-25T12:20:01.082Z,0.40
2018-09-25T12:22:55.612Z,0.30
2018-09-25T12:25:30.585Z,0.37
2018-09-25T12:28:05.580Z,0.40
2018-09-25T12:30:40.566Z,0.37
2018-09-25T12:33:15.156Z,0.40
2018-09-25T12:35:50.696Z,0.30
2018-09-25T12:38:26.536Z,0.60
2018-09-25T12:41:01.588Z,0.33
2018-09-25T12:43:37.356Z,0.40
2018-09-25T12:46:12.076Z,0.37
2018-09-25T12:48:46.843Z,0.20
2018-09-25T12:51:21.887Z,0.33
2018-09-25T12:53:57.830Z,0.40
2018-09-25T12:56:32.630Z,0.40
2018-09-25T12:59:07.838Z,0.40
2018-09-25T13:01:42.567Z,0.60
2018-09-25T13:04:17.469Z,0.40
2018-09-25T13:06:52.432Z,0.40
2018-09-25T13:09:27.260Z,0.50
2018-09-25T13:12:01.978Z,0.30
2018-09-25T13:14:36.812Z,0.40
2018-09-25T13:17:11.784Z,0.40
2018-09-25T13:19:46.580Z,0.70
2018-09-25T13:22:21.257Z,0.30
2018-09-25T13:24:56.418Z,0.43
2018-09-25T13:27:31.367Z,0.40
2018-09-25T13:30:08.008Z,0.40
2018-09-25T13:32:42.700Z,0.50
2018-09-25T13:35:17.685Z,0.50
2018-09-25T13:37:52.559Z,0.40
2018-09-25T13:40:27.414Z,0.67
2018-09-25T13:43:02.093Z,0.53
2018-09-25T13:45:37.018Z,0.53
2018-09-25T13:48:12.215Z,0.50
2018-09-25T13:50:47.190Z,0.50
2018-09-25T13:53:23.128Z,0.40
2018-09-25T13:55:58.174Z,0.40
2018-09-25T13:58:32.858Z,0.40
2018-09-25T14:01:07.636Z,0.53
2018-09-25T14:03:42.371Z,0.80
2018-09-25T14:06:17.039Z,0.50
2018-09-25T14:08:52.073Z,0.40
2018-09-25T14:11:26.773Z,0.60
2018-09-25T14:14:01.470Z,0.50
2018-09-25T14:16:36.717Z,0.40
2018-09-25T14:19:11.493Z,0.60
2018-09-25T14:21:46.238Z,0.30
2018-09-25T14:24:20.890Z,0.50
2018-09-25T14:26:56.009Z,0.37
2018-09-25T14:29:30.937Z,0.40
2018-09-25T14:32:05.650Z,0.50
2018-09-25T14:34:40.207Z,0.30
2018-09-25T14:37:15.480Z,0.50
2018-09-25T14:39:50.085Z,0.40
2018-09-25T14:42:25.098Z,0.70
2018-09-25T14:45:00.073Z,0.60
2018-09-25T14:47:34.899Z,0.70
2018-09-25T14:50:09.883Z,0.47
2018-09-25T14:52:44.568Z,0.33
2018-09-25T14:55:19.753Z,0.73
2018-09-25T14:57:54.464Z,0.37
2018-09-25T15:00:29.574Z,0.70
2018-09-25T15:03:04.058Z,0.57
2018-09-25T15:05:38.764Z,0.40
2018-09-25T15:08:13.357Z,0.40
2018-09-25T15:10:48.412Z,0.47
2018-09-25T15:13:23.022Z,0.50
2018-09-25T15:15:57.818Z,0.60
2018-09-25T15:18:32.508Z,0.53
2018-09-25T15:21:07.438Z,0.57
2018-09-25T15:23:42.310Z,0.40
2018-09-25T15:26:17.305Z,0.43
2018-09-25T15:28:52.242Z,0.50
2018-09-25T15:31:27.254Z,0.33
2018-09-25T15:34:05.468Z,0.60
2018-09-25T15:36:40.338Z,0.70
2018-09-25T15:39:15.578Z,0.50
2018-09-25T15:41:50.819Z,0.40
2018-09-25T15:44:26.075Z,0.50
2018-09-25T15:47:00.719Z,0.40
2018-09-25T15:49:35.635Z,0.50
2018-09-25T15:52:10.215Z,0.60
2018-09-25T15:54:44.810Z,0.60
2018-09-25T15:57:19.992Z,0.50
2018-09-25T15:59:54.939Z,0.40
2018-09-25T16:02:29.834Z,0.47
2018-09-25T16:05:04.890Z,0.37
2018-09-25T16:07:39.691Z,0.50
2018-09-25T16:10:14.511Z,0.60
2018-09-25T16:12:49.184Z,0.47
2018-09-25T16:15:24.128Z,0.67
2018-09-25T16:17:58.957Z,0.63
2018-09-25T16:20:33.851Z,0.50
2018-09-25T16:23:08.350Z,0.40
2018-09-25T16:25:42.955Z,0.43
2018-09-25T16:28:17.999Z,0.40
2018-09-25T16:30:52.684Z,0.60
2018-09-25T16:33:27.482Z,0.47
2018-09-25T16:36:02.322Z,0.40
2018-09-25T16:38:38.103Z,0.60
2018-09-25T16:41:12.801Z,0.60
2018-09-25T16:43:48.031Z,0.33
2018-09-25T16:46:22.591Z,0.40
2018-09-25T16:48:57.093Z,0.50
2018-09-25T16:51:32.105Z,0.53
2018-09-25T16:54:06.720Z,0.40
2018-09-25T16:56:41.559Z,0.50
2018-09-25T16:59:18.430Z,0.50
2018-09-25T17:01:54.807Z,0.50
2018-09-25T17:04:29.602Z,0.50
2018-09-25T17:07:05.245Z,0.63
2018-09-25T17:09:40.097Z,0.60
2018-09-25T17:12:15.350Z,0.43
2018-09-25T17:14:50.578Z,0.60
2018-09-25T17:17:25.544Z,0.60
2018-09-25T17:20:01.089Z,0.53
2018-09-25T17:22:35.748Z,0.50
2018-09-25T17:25:10.920Z,0.50
2018-09-25T17:27:46.235Z,0.60
2018-09-25T17:30:21.314Z,0.70
2018-09-25T17:32:58.298Z,0.50
2018-09-25T17:35:33.415Z,0.50
2018-09-25T17:38:08.193Z,1.07
2018-09-25T17:40:44.420Z,0.90
2018-09-25T17:43:19.242Z,0.80
2018-09-25T17:45:53.868Z,0.60
2018-09-25T17:48:29.435Z,0.70
2018-09-25T17:51:04.482Z,0.80
2018-09-25T17:53:39.257Z,0.73
2018-09-25T17:56:13.986Z,0.60
2018-09-25T17:58:49.996Z,0.30
2018-09-25T18:01:26.653Z,0.50
2018-09-25T18:04:03.259Z,1.10
2018-09-25T18:06:38.737Z,0.50
2018-09-25T18:09:15.003Z,0.87
2018-09-25T18:11:49.801Z,0.80
2018-09-25T18:14:25.556Z,0.50
2018-09-25T18:17:00.111Z,0.70
2018-09-25T18:19:35.345Z,0.67
2018-09-25T18:22:10.435Z,0.50
2018-09-25T18:24:45.316Z,0.50
2018-09-25T18:27:21.344Z,0.77
2018-09-25T18:29:56.932Z,0.53
2018-09-25T18:32:31.653Z,0.80
2018-09-25T18:35:06.554Z,0.73
2018-09-25T18:37:41.275Z,0.70
2018-09-25T18:40:16.102Z,0.93
2018-09-25T18:42:50.992Z,0.63
2018-09-25T18:45:25.889Z,0.50
2018-09-25T18:48:00.663Z,0.83
2018-09-25T18:50:35.562Z,0.87
2018-09-25T18:53:10.348Z,0.83
2018-09-25T18:55:44.921Z,0.50
2018-09-25T18:58:20.219Z,0.60
2018-09-25T19:00:55.221Z,0.70
2018-09-25T19:03:29.850Z,0.93
2018-09-25T19:06:04.824Z,0.70
2018-09-25T19:08:39.481Z,1.10
2018-09-25T19:11:14.543Z,0.80
2018-09-25T19:13:49.232Z,0.60
2018-09-25T19:16:24.257Z,0.70
2018-09-25T19:18:59.081Z,0.80
2018-09-25T19:21:33.758Z,0.80
2018-09-25T19:24:08.436Z,0.70
2018-09-25T19:26:43.338Z,0.83
2018-09-25T19:29:18.340Z,0.87
2018-09-25T19:31:53.024Z,0.80
2018-09-25T19:34:27.708Z,0.90
2018-09-25T19:37:02.635Z,0.53
2018-09-25T19:39:37.177Z,0.80
2018-09-25T19:42:12.400Z,0.93
2018-09-25T19:44:48.492Z,0.90
2018-09-25T19:47:23.382Z,1.00
2018-09-25T19:49:58.246Z,0.80
2018-09-25T19:52:32.969Z,0.70
2018-09-25T19:55:07.876Z,1.10
2018-09-25T19:57:42.648Z,0.83
2018-09-25T20:00:17.498Z,0.97
2018-09-25T20:02:52.160Z,1.80
2018-09-25T20:05:26.852Z,0.83
2018-09-25T20:08:01.713Z,0.57
2018-09-25T20:10:36.510Z,1.20
2018-09-25T20:13:11.493Z,0.80
2018-09-25T20:15:46.424Z,1.00
2018-09-25T20:18:21.626Z,0.90
2018-09-25T20:20:57.321Z,0.90
2018-09-25T20:23:33.703Z,0.90
2018-09-25T20:26:08.870Z,0.70
2018-09-25T20:28:43.673Z,1.10
2018-09-25T20:31:18.556Z,0.67
2018-09-25T20:33:53.235Z,0.80
2018-09-25T20:36:29.598Z,0.70
2018-09-25T20:39:04.737Z,0.60
2018-09-25T20:41:39.609Z,0.90
2018-09-25T20:44:14.714Z,1.00
2018-09-25T20:46:49.420Z,1.27
2018-09-25T20:49:24.117Z,0.97
2018-09-25T20:51:58.636Z,1.03
2018-09-25T20:54:33.112Z,1.03
2018-09-25T20:57:08.060Z,0.83
2018-09-25T20:59:42.744Z,1.00
2018-09-25T21:02:17.458Z,0.80
2018-09-25T21:04:52.109Z,0.90
2018-09-25T21:07:27.138Z,1.07
2018-09-25T21:10:01.897Z,0.90
2018-09-25T21:12:36.568Z,1.10
2018-09-25T21:15:11.407Z,1.13
2018-09-25T21:17:46.127Z,1.37
2018-09-25T21:20:21.157Z,1.10
2018-09-25T21:22:55.956Z,1.30
2018-09-25T21:25:30.740Z,1.00
2018-09-25T21:28:05.284Z,1.23
2018-09-25T21:30:39.794Z,0.97
2018-09-25T21:33:14.520Z,1.23
2018-09-25T21:35:49.187Z,1.10
2018-09-25T21:38:23.808Z,0.97
2018-09-25T21:40:59.024Z,1.50
2018-09-25T21:43:33.517Z,1.17
2018-09-25T21:46:08.527Z,1.00
2018-09-25T21:48:43.053Z,1.03
2018-09-25T21:51:18.239Z,0.87
2018-09-25T21:53:52.543Z,1.37
2018-09-25T21:56:27.164Z,1.03
2018-09-25T21:59:02.118Z,1.17
2018-09-25T22:01:36.708Z,0.90
2018-09-25T22:04:11.400Z,1.00
2018-09-25T22:06:46.055Z,0.70
2018-09-25T22:09:20.866Z,1.40
2018-09-25T22:11:56.726Z,0.97
2018-09-25T22:14:31.435Z,1.07
2018-09-25T22:17:06.081Z,1.30
2018-09-25T22:19:40.912Z,2.27
2018-09-25T22:22:15.607Z,1.10
2018-09-25T22:24:50.509Z,1.07
2018-09-25T22:27:25.670Z,1.23
2018-09-25T22:30:00.526Z,1.50
2018-09-25T22:32:35.131Z,1.40
2018-09-25T22:35:09.956Z,1.03
2018-09-25T22:37:44.476Z,0.73
2018-09-25T22:40:19.149Z,0.90
2018-09-25T22:42:53.688Z,1.00
2018-09-25T22:45:28.571Z,0.80
2018-09-25T22:48:03.482Z,0.97
2018-09-25T22:50:38.458Z,1.07
2018-09-25T22:53:13.000Z,1.10
2018-09-25T22:55:47.903Z,1.10
2018-09-25T22:58:22.656Z,1.03
2018-09-25T23:00:57.203Z,1.10
2018-09-25T23:03:31.902Z,1.00
2018-09-25T23:06:06.899Z,1.00
2018-09-25T23:08:41.716Z,0.87
2018-09-25T23:11:16.339Z,1.10
2018-09-25T23:13:50.986Z,0.97
2018-09-25T23:16:25.892Z,0.77
2018-09-25T23:19:00.666Z,1.00
2018-09-25T23:21:35.683Z,1.03
2018-09-25T23:24:10.598Z,1.10
2018-09-25T23:26:45.419Z,1.20
2018-09-25T23:29:20.041Z,1.20
2018-09-25T23:31:54.723Z,1.00
2018-09-25T23:34:29.296Z,1.57
2018-09-25T23:37:03.864Z,1.13
2018-09-25T23:39:54.682Z,1.10
2018-09-25T23:42:30.260Z,0.80
2018-09-25T23:45:34.719Z,0.73
2018-09-25T23:48:22.865Z,1.00
2018-09-25T23:50:59.545Z,1.43
2018-09-25T23:54:34.805Z,1.30
2018-09-25T23:57:10.233Z,0.70
2018-09-25T23:59:43.545Z,0.90
